Terminal Aerodrome Forecast
Issued by NWS

Home | Current Version | Previous Version | Text Only | Print | Product List | Glossary On
Versions: 1 2 3 4 5 6 7 8 9 10 11 12
000
FTUS45 KABQ 021139
TAFGUP
TAF
KGUP 021139Z 0212/0312 VRB06KT P6SM SCT090 BKN120
     FM021700 23009KT P6SM VCSH SCT060 BKN090
     FM022100 24011KT P6SM VCSH BKN060
      TEMPO 0221/0224 VRB18G31KT -TSRA SCT035 BKN060CB
     FM030300 06006KT P6SM BKN090=

USA.gov is the U.S. government's official web portal to all federal, state and local government web resources and services.